sensor_id;sensor_type;location;lat;lon;timestamp;pressure;altitude;pressure_sealevel;temperature;humidity
15050;BME280;7622;42.724;23.250;2023-02-01T00:02:16;94734.91;;;0.82;100.00
15050;BME280;7622;42.724;23.250;2023-02-01T00:04:43;94729.25;;;0.91;100.00
15050;BME280;7622;42.724;23.250;2023-02-01T00:07:10;94730.91;;;0.92;100.00
15050;BME280;7622;42.724;23.250;2023-02-01T00:09:36;94733.66;;;0.73;100.00
15050;BME280;7622;42.724;23.250;2023-02-01T00:12:03;94734.91;;;0.82;100.00
15050;BME280;7622;42.724;23.250;2023-02-01T00:14:30;94744.44;;;0.94;100.00
15050;BME280;7622;42.724;23.250;2023-02-01T00:17:03;94741.88;;;0.94;100.00
15050;BME280;7622;42.724;23.250;2023-02-01T00:19:32;94737.81;;;0.90;100.00
15050;BME280;7622;42.724;23.250;2023-02-01T00:21:59;94730.84;;;0.78;100.00
15050;BME280;7622;42.724;23.250;2023-02-01T00:24:26;94742.56;;;0.82;100.00
15050;BME280;7622;42.724;23.250;2023-02-01T00:26:53;94735.28;;;0.90;100.00
15050;BME280;7622;42.724;23.250;2023-02-01T00:29:20;94730.41;;;0.86;100.00
15050;BME280;7622;42.724;23.250;2023-02-01T00:31:49;94733.66;;;0.89;100.00
15050;BME280;7622;42.724;23.250;2023-02-01T00:34:16;94735.94;;;0.78;100.00
15050;BME280;7622;42.724;23.250;2023-02-01T00:36:45;94731.25;;;0.86;100.00
15050;BME280;7622;42.724;23.250;2023-02-01T00:39:15;94732.72;;;0.90;100.00
15050;BME280;7622;42.724;23.250;2023-02-01T00:41:42;94729.84;;;0.81;100.00
15050;BME280;7622;42.724;23.250;2023-02-01T00:44:09;94735.78;;;0.81;100.00
15050;BME280;7622;42.724;23.250;2023-02-01T00:46:36;94728.78;;;0.85;100.00
15050;BME280;7622;42.724;23.250;2023-02-01T00:49:03;94719.84;;;0.92;100.00
15050;BME280;7622;42.724;23.250;2023-02-01T00:51:31;94719.03;;;0.91;100.00
15050;BME280;7622;42.724;23.250;2023-02-01T00:53:59;94712.03;;;0.63;100.00
15050;BME280;7622;42.724;23.250;2023-02-01T00:56:25;94713.47;;;0.69;100.00
15050;BME280;7622;42.724;23.250;2023-02-01T00:58:53;94707.19;;;0.59;100.00
15050;BME280;7622;42.724;23.250;2023-02-01T01:01:22;94721.22;;;0.67;100.00
15050;BME280;7622;42.724;23.250;2023-02-01T01:03:51;94700.34;;;0.59;100.00
15050;BME280;7622;42.724;23.250;2023-02-01T01:06:20;94718.25;;;0.75;100.00
15050;BME280;7622;42.724;23.250;2023-02-01T01:08:49;94706.69;;;0.68;100.00
15050;BME280;7622;42.724;23.250;2023-02-01T01:11:20;94708.72;;;0.77;100.00
15050;BME280;7622;42.724;23.250;2023-02-01T01:13:49;94714.84;;;0.74;100.00
15050;BME280;7622;42.724;23.250;2023-02-01T01:16:16;94711.81;;;0.68;100.00
15050;BME280;7622;42.724;23.250;2023-02-01T01:18:43;94711.47;;;0.74;100.00
15050;BME280;7622;42.724;23.250;2023-02-01T01:21:13;94708.34;;;0.69;100.00
15050;BME280;7622;42.724;23.250;2023-02-01T01:23:40;94699.53;;;0.59;100.00
15050;BME280;7622;42.724;23.250;2023-02-01T01:26:08;94716.94;;;0.68;100.00
15050;BME280;7622;42.724;23.250;2023-02-01T01:28:37;94714.38;;;0.68;100.00
15050;BME280;7622;42.724;23.250;2023-02-01T01:31:08;94715.09;;;0.70;100.00
15050;BME280;7622;42.724;23.250;2023-02-01T01:33:35;94716.81;;;0.69;100.00
15050;BME280;7622;42.724;23.250;2023-02-01T01:36:04;94703.31;;;0.52;100.00
15050;BME280;7622;42.724;23.250;2023-02-01T01:38:31;94724.59;;;0.68;100.00
15050;BME280;7622;42.724;23.250;2023-02-01T01:40:58;94734.81;;;0.68;100.00
15050;BME280;7622;42.724;23.250;2023-02-01T01:43:25;94730.75;;;0.64;100.00
15050;BME280;7622;42.724;23.250;2023-02-01T01:45:53;94713.59;;;0.50;100.00
15050;BME280;7622;42.724;23.250;2023-02-01T01:48:23;94729.09;;;0.63;100.00
15050;BME280;7622;42.724;23.250;2023-02-01T01:50:57;94732.75;;;0.59;100.00
15050;BME280;7622;42.724;23.250;2023-02-01T01:53:28;94725.16;;;0.73;100.00
15050;BME280;7622;42.724;23.250;2023-02-01T01:55:58;94729.84;;;0.65;100.00
15050;BME280;7622;42.724;23.250;2023-02-01T01:58:28;94709.50;;;0.48;100.00
15050;BME280;7622;42.724;23.250;2023-02-01T02:00:57;94727.78;;;0.56;100.00
15050;BME280;7622;42.724;23.250;2023-02-01T02:03:28;94725.00;;;0.45;100.00
15050;BME280;7622;42.724;23.250;2023-02-01T02:06:01;94726.97;;;0.39;100.00
15050;BME280;7622;42.724;23.250;2023-02-01T02:08:29;94717.06;;;0.49;100.00
15050;BME280;7622;42.724;23.250;2023-02-01T02:10:56;94721.69;;;0.43;100.00
15050;BME280;7622;42.724;23.250;2023-02-01T02:13:26;94716.75;;;0.39;100.00
15050;BME280;7622;42.724;23.250;2023-02-01T02:16:05;94712.31;;;0.27;100.00
15050;BME280;7622;42.724;23.250;2023-02-01T02:18:43;94717.31;;;0.29;100.00
15050;BME280;7622;42.724;23.250;2023-02-01T02:21:17;94715.91;;;0.23;100.00
15050;BME280;7622;42.724;23.250;2023-02-01T02:27:05;94723.78;;;0.03;100.00
15050;BME280;7622;42.724;23.250;2023-02-01T02:36:12;94723.75;;;0.20;100.00
15050;BME280;7622;42.724;23.250;2023-02-01T02:38:46;94723.00;;;0.18;100.00
15050;BME280;7622;42.724;23.250;2023-02-01T02:41:19;94734.34;;;0.28;100.00
15050;BME280;7622;42.724;23.250;2023-02-01T02:44:08;94691.66;;;-0.01;100.00
15050;BME280;7622;42.724;23.250;2023-02-01T02:46:57;94724.47;;;0.22;100.00
15050;BME280;7622;42.724;23.250;2023-02-01T02:49:46;94721.09;;;0.22;100.00
15050;BME280;7622;42.724;23.250;2023-02-01T02:52:39;94721.69;;;0.27;100.00
15050;BME280;7622;42.724;23.250;2023-02-01T02:55:26;94699.59;;;0.10;100.00
15050;BME280;7622;42.724;23.250;2023-02-01T02:57:56;94715.75;;;0.26;100.00
15050;BME280;7622;42.724;23.250;2023-02-01T03:00:42;94714.78;;;0.45;100.00
15050;BME280;7622;42.724;23.250;2023-02-01T03:03:28;94724.50;;;0.38;100.00
15050;BME280;7622;42.724;23.250;2023-02-01T03:06:16;94722.50;;;0.43;100.00
15050;BME280;7622;42.724;23.250;2023-02-01T03:08:44;94735.47;;;0.40;100.00
15050;BME280;7622;42.724;23.250;2023-02-01T03:11:13;94730.25;;;0.42;100.00
15050;BME280;7622;42.724;23.250;2023-02-01T03:13:46;94742.44;;;0.36;100.00
15050;BME280;7622;42.724;23.250;2023-02-01T03:16:18;94728.69;;;0.39;100.00
15050;BME280;7622;42.724;23.250;2023-02-01T03:18:55;94740.06;;;0.49;100.00
15050;BME280;7622;42.724;23.250;2023-02-01T03:21:30;94733.91;;;0.53;100.00
15050;BME280;7622;42.724;23.250;2023-02-01T03:24:03;94736.84;;;0.30;100.00
15050;BME280;7622;42.724;23.250;2023-02-01T03:26:37;94738.81;;;0.56;100.00
15050;BME280;7622;42.724;23.250;2023-02-01T03:29:14;94734.31;;;0.46;100.00
15050;BME280;7622;42.724;23.250;2023-02-01T03:31:44;94740.81;;;0.51;100.00
15050;BME280;7622;42.724;23.250;2023-02-01T03:34:12;94742.81;;;0.46;100.00
15050;BME280;7622;42.724;23.250;2023-02-01T03:36:45;94744.03;;;0.55;100.00
15050;BME280;7622;42.724;23.250;2023-02-01T03:39:17;94741.78;;;0.49;100.00
15050;BME280;7622;42.724;23.250;2023-02-01T03:41:49;94740.00;;;0.51;100.00
15050;BME280;7622;42.724;23.250;2023-02-01T03:44:21;94736.19;;;0.42;100.00
15050;BME280;7622;42.724;23.250;2023-02-01T03:46:50;94733.06;;;0.53;100.00
15050;BME280;7622;42.724;23.250;2023-02-01T03:49:21;94737.34;;;0.52;100.00
15050;BME280;7622;42.724;23.250;2023-02-01T03:51:52;94736.38;;;0.55;100.00
15050;BME280;7622;42.724;23.250;2023-02-01T03:54:19;94743.13;;;0.56;100.00
15050;BME280;7622;42.724;23.250;2023-02-01T03:56:47;94754.44;;;0.67;100.00
15050;BME280;7622;42.724;23.250;2023-02-01T03:59:14;94747.94;;;0.62;100.00
15050;BME280;7622;42.724;23.250;2023-02-01T04:01:41;94749.72;;;0.60;100.00
15050;BME280;7622;42.724;23.250;2023-02-01T04:04:08;94750.72;;;0.73;100.00
15050;BME280;7622;42.724;23.250;2023-02-01T04:06:35;94744.69;;;0.74;100.00
15050;BME280;7622;42.724;23.250;2023-02-01T04:09:04;94753.50;;;0.84;100.00
15050;BME280;7622;42.724;23.250;2023-02-01T04:11:30;94749.00;;;0.89;100.00
15050;BME280;7622;42.724;23.250;2023-02-01T04:13:57;94746.44;;;0.89;100.00
15050;BME280;7622;42.724;23.250;2023-02-01T04:16:29;94751.84;;;0.83;100.00
15050;BME280;7622;42.724;23.250;2023-02-01T04:18:56;94755.34;;;0.82;100.00
15050;BME280;7622;42.724;23.250;2023-02-01T04:21:23;94753.16;;;0.90;100.00
15050;BME280;7622;42.724;23.250;2023-02-01T04:23:50;94750.38;;;0.95;100.00
15050;BME280;7622;42.724;23.250;2023-02-01T04:26:18;94757.22;;;0.94;100.00
15050;BME280;7622;42.724;23.250;2023-02-01T04:28:45;94757.03;;;0.97;100.00
15050;BME280;7622;42.724;23.250;2023-02-01T04:31:13;94753.00;;;0.93;100.00
15050;BME280;7622;42.724;23.250;2023-02-01T04:33:40;94754.97;;;1.04;100.00
15050;BME280;7622;42.724;23.250;2023-02-01T04:36:07;94718.25;;;0.75;100.00
15050;BME280;7622;42.724;23.250;2023-02-01T04:38:34;94752.88;;;0.96;100.00
15050;BME280;7622;42.724;23.250;2023-02-01T04:41:00;94743.69;;;0.92;100.00
15050;BME280;7622;42.724;23.250;2023-02-01T04:43:28;94758.63;;;1.00;100.00
15050;BME280;7622;42.724;23.250;2023-02-01T04:45:55;94763.22;;;1.09;100.00
15050;BME280;7622;42.724;23.250;2023-02-01T04:48:22;94761.44;;;0.95;100.00
15050;BME280;7622;42.724;23.250;2023-02-01T04:50:49;94766.63;;;0.78;100.00
15050;BME280;7622;42.724;23.250;2023-02-01T04:53:15;94767.19;;;0.83;100.00
15050;BME280;7622;42.724;23.250;2023-02-01T04:55:42;94773.63;;;0.90;100.00
15050;BME280;7622;42.724;23.250;2023-02-01T04:58:10;94775.13;;;0.94;100.00
15050;BME280;7622;42.724;23.250;2023-02-01T05:00:38;94775.13;;;0.94;100.00
15050;BME280;7622;42.724;23.250;2023-02-01T05:03:05;94780.06;;;0.97;100.00
15050;BME280;7622;42.724;23.250;2023-02-01T05:05:32;94781.97;;;0.94;100.00
15050;BME280;7622;42.724;23.250;2023-02-01T05:07:59;94784.53;;;0.94;100.00
15050;BME280;7622;42.724;23.250;2023-02-01T05:10:25;94787.81;;;0.96;100.00
15050;BME280;7622;42.724;23.250;2023-02-01T05:12:52;94787.31;;;1.05;100.00
15050;BME280;7622;42.724;23.250;2023-02-01T05:15:37;94791.59;;;1.04;100.00
15050;BME280;7622;42.724;23.250;2023-02-01T05:18:04;94759.44;;;0.85;100.00
15050;BME280;7622;42.724;23.250;2023-02-01T05:20:31;94784.88;;;1.03;100.00
15050;BME280;7622;42.724;23.250;2023-02-01T05:22:58;94776.94;;;1.08;100.00
15050;BME280;7622;42.724;23.250;2023-02-01T05:25:24;94779.16;;;1.14;100.00
15050;BME280;7622;42.724;23.250;2023-02-01T05:27:52;94784.69;;;1.06;100.00
15050;BME280;7622;42.724;23.250;2023-02-01T05:30:19;94773.31;;;0.96;100.00
15050;BME280;7622;42.724;23.250;2023-02-01T05:32:50;94775.75;;;0.98;100.00
15050;BME280;7622;42.724;23.250;2023-02-01T05:35:17;94784.34;;;1.12;100.00
15050;BME280;7622;42.724;23.250;2023-02-01T05:37:44;94780.53;;;1.19;100.00
15050;BME280;7622;42.724;23.250;2023-02-01T05:40:11;94784.81;;;1.19;100.00
15050;BME280;7622;42.724;23.250;2023-02-01T05:42:38;94794.81;;;1.24;100.00
15050;BME280;7622;42.724;23.250;2023-02-01T05:45:06;94793.31;;;1.19;100.00
15050;BME280;7622;42.724;23.250;2023-02-01T05:47:33;94793.16;;;1.23;100.00
15050;BME280;7622;42.724;23.250;2023-02-01T05:50:01;94792.25;;;1.24;100.00
15050;BME280;7622;42.724;23.250;2023-02-01T05:52:28;94789.09;;;1.34;100.00
15050;BME280;7622;42.724;23.250;2023-02-01T05:54:54;94791.22;;;1.42;100.00
15050;BME280;7622;42.724;23.250;2023-02-01T05:57:21;94790.06;;;1.32;100.00
15050;BME280;7622;42.724;23.250;2023-02-01T05:59:48;94796.00;;;1.48;100.00
15050;BME280;7622;42.724;23.250;2023-02-01T06:02:15;94799.31;;;1.50;100.00
15050;BME280;7622;42.724;23.250;2023-02-01T06:04:42;94794.09;;;1.51;100.00
15050;BME280;7622;42.724;23.250;2023-02-01T06:07:10;94800.97;;;1.51;100.00
15050;BME280;7622;42.724;23.250;2023-02-01T06:09:37;94799.03;;;1.54;100.00
15050;BME280;7622;42.724;23.250;2023-02-01T06:12:04;94795.50;;;1.57;100.00
15050;BME280;7622;42.724;23.250;2023-02-01T06:14:31;94796.41;;;1.56;100.00
15050;BME280;7622;42.724;23.250;2023-02-01T06:16:58;94800.91;;;1.67;100.00
15050;BME280;7622;42.724;23.250;2023-02-01T06:19:25;94799.56;;;1.75;100.00
15050;BME280;7622;42.724;23.250;2023-02-01T06:21:52;94798.09;;;1.71;100.00
15050;BME280;7622;42.724;23.250;2023-02-01T06:24:20;94799.28;;;1.80;100.00
15050;BME280;7622;42.724;23.250;2023-02-01T06:26:47;94808.06;;;1.76;100.00
15050;BME280;7622;42.724;23.250;2023-02-01T06:29:15;94803.84;;;1.75;100.00
15050;BME280;7622;42.724;23.250;2023-02-01T06:31:41;94799.88;;;1.85;100.00
15050;BME280;7622;42.724;23.250;2023-02-01T06:34:09;94805.00;;;1.85;100.00
15050;BME280;7622;42.724;23.250;2023-02-01T06:36:36;94808.19;;;1.88;100.00
15050;BME280;7622;42.724;23.250;2023-02-01T06:39:03;94808.19;;;1.88;100.00
15050;BME280;7622;42.724;23.250;2023-02-01T06:41:31;94808.94;;;1.90;100.00
15050;BME280;7622;42.724;23.250;2023-02-01T06:44:00;94806.22;;;2.08;100.00
15050;BME280;7622;42.724;23.250;2023-02-01T06:46:27;94806.56;;;2.02;100.00
15050;BME280;7622;42.724;23.250;2023-02-01T06:48:53;94817.00;;;1.98;100.00
15050;BME280;7622;42.724;23.250;2023-02-01T06:51:23;94819.00;;;2.08;100.00
15050;BME280;7622;42.724;23.250;2023-02-01T06:53:50;94821.88;;;2.17;100.00
15050;BME280;7622;42.724;23.250;2023-02-01T06:56:17;94821.88;;;2.17;100.00
15050;BME280;7622;42.724;23.250;2023-02-01T06:58:46;94830.56;;;2.29;100.00
15050;BME280;7622;42.724;23.250;2023-02-01T07:01:13;94814.28;;;2.30;100.00
15050;BME280;7622;42.724;23.250;2023-02-01T07:03:40;94836.00;;;2.38;100.00
15050;BME280;7622;42.724;23.250;2023-02-01T07:06:09;94838.84;;;2.34;100.00
15050;BME280;7622;42.724;23.250;2023-02-01T07:08:37;94852.59;;;2.47;100.00
15050;BME280;7622;42.724;23.250;2023-02-01T07:11:05;94843.69;;;2.53;100.00
15050;BME280;7622;42.724;23.250;2023-02-01T07:13:32;94845.81;;;2.46;100.00
15050;BME280;7622;42.724;23.250;2023-02-01T07:16:02;94845.06;;;2.44;100.00
15050;BME280;7622;42.724;23.250;2023-02-01T07:18:30;94848.81;;;2.53;100.00
15050;BME280;7622;42.724;23.250;2023-02-01T07:20:57;94823.94;;;2.41;100.00
15050;BME280;7622;42.724;23.250;2023-02-01T07:23:25;94848.75;;;2.54;100.00
15050;BME280;7622;42.724;23.250;2023-02-01T07:25:55;94863.19;;;2.41;100.00
15050;BME280;7622;42.724;23.250;2023-02-01T07:28:23;94846.34;;;2.51;100.00
15050;BME280;7622;42.724;23.250;2023-02-01T07:30:51;94854.78;;;2.53;100.00
15050;BME280;7622;42.724;23.250;2023-02-01T07:33:21;94850.56;;;2.52;100.00
15050;BME280;7622;42.724;23.250;2023-02-01T07:35:49;94858.63;;;2.60;100.00
15050;BME280;7622;42.724;23.250;2023-02-01T07:38:16;94868.81;;;2.62;100.00
15050;BME280;7622;42.724;23.250;2023-02-01T07:40:44;94862.66;;;2.64;100.00
15050;BME280;7622;42.724;23.250;2023-02-01T07:43:11;94862.84;;;2.61;100.00
15050;BME280;7622;42.724;23.250;2023-02-01T07:45:38;94873.81;;;2.77;100.00
15050;BME280;7622;42.724;23.250;2023-02-01T07:48:05;94872.38;;;2.88;100.00
15050;BME280;7622;42.724;23.250;2023-02-01T07:50:34;94871.91;;;2.81;100.00
15050;BME280;7622;42.724;23.250;2023-02-01T07:53:01;94871.47;;;2.89;100.00
15050;BME280;7622;42.724;23.250;2023-02-01T07:55:28;94879.88;;;2.91;100.00
15050;BME280;7622;42.724;23.250;2023-02-01T07:57:57;94882.88;;;3.11;100.00
15050;BME280;7622;42.724;23.250;2023-02-01T08:00:24;94877.88;;;2.96;100.00
15050;BME280;7622;42.724;23.250;2023-02-01T08:03:07;94885.56;;;2.96;100.00
15050;BME280;7622;42.724;23.250;2023-02-01T08:05:36;94890.94;;;3.05;100.00
15050;BME280;7622;42.724;23.250;2023-02-01T08:08:03;94884.66;;;2.97;100.00
15050;BME280;7622;42.724;23.250;2023-02-01T08:10:30;94882.25;;;3.08;100.00
15050;BME280;7622;42.724;23.250;2023-02-01T08:12:58;94874.72;;;3.05;100.00
15050;BME280;7622;42.724;23.250;2023-02-01T08:15:26;94873.09;;;3.18;100.00
15050;BME280;7622;42.724;23.250;2023-02-01T08:17:53;94883.13;;;3.35;100.00
15050;BME280;7622;42.724;23.250;2023-02-01T08:20:21;94875.75;;;3.58;100.00
15050;BME280;7622;42.724;23.250;2023-02-01T08:22:49;94884.78;;;3.63;100.00
15050;BME280;7622;42.724;23.250;2023-02-01T08:25:16;94893.63;;;3.59;100.00
15050;BME280;7622;42.724;23.250;2023-02-01T08:27:44;94889.50;;;3.56;100.00
15050;BME280;7622;42.724;23.250;2023-02-01T08:30:12;94887.66;;;3.59;100.00
15050;BME280;7622;42.724;23.250;2023-02-01T08:32:39;94899.38;;;3.63;100.00
15050;BME280;7622;42.724;23.250;2023-02-01T08:35:06;94899.19;;;3.66;100.00
15050;BME280;7622;42.724;23.250;2023-02-01T08:37:33;94899.94;;;3.53;100.00
15050;BME280;7622;42.724;23.250;2023-02-01T08:40:01;94898.56;;;3.62;100.00
15050;BME280;7622;42.724;23.250;2023-02-01T08:42:28;94900.34;;;4.01;100.00
15050;BME280;7622;42.724;23.250;2023-02-01T08:45:13;94886.16;;;4.08;100.00
15050;BME280;7622;42.724;23.250;2023-02-01T08:47:40;94884.06;;;4.27;100.00
15050;BME280;7622;42.724;23.250;2023-02-01T08:50:08;94879.09;;;4.77;100.00
15050;BME280;7622;42.724;23.250;2023-02-01T08:52:35;94858.63;;;5.84;100.00
15050;BME280;7622;42.724;23.250;2023-02-01T08:55:06;94886.75;;;6.81;98.05
15050;BME280;7622;42.724;23.250;2023-02-01T08:57:36;94882.41;;;7.48;82.56
15050;BME280;7622;42.724;23.250;2023-02-01T09:00:06;94876.50;;;8.44;71.25
15050;BME280;7622;42.724;23.250;2023-02-01T09:02:33;94872.00;;;8.87;66.51
15050;BME280;7622;42.724;23.250;2023-02-01T09:05:00;94883.97;;;9.30;62.17
15050;BME280;7622;42.724;23.250;2023-02-01T09:07:27;94886.47;;;9.11;61.09
15050;BME280;7622;42.724;23.250;2023-02-01T09:09:53;94895.34;;;9.48;60.23
15050;BME280;7622;42.724;23.250;2023-02-01T09:12:23;94875.66;;;9.36;59.43
15050;BME280;7622;42.724;23.250;2023-02-01T09:14:49;94899.09;;;9.25;59.06
15050;BME280;7622;42.724;23.250;2023-02-01T09:17:16;94894.81;;;8.93;58.95
15050;BME280;7622;42.724;23.250;2023-02-01T09:19:43;94896.97;;;8.47;60.47
15050;BME280;7622;42.724;23.250;2023-02-01T09:22:10;94895.34;;;7.37;64.24
15050;BME280;7622;42.724;23.250;2023-02-01T09:24:37;94905.66;;;7.48;65.22
15050;BME280;7622;42.724;23.250;2023-02-01T09:27:03;94887.56;;;7.26;67.95
15050;BME280;7622;42.724;23.250;2023-02-01T09:29:32;94901.63;;;7.78;65.18
15050;BME280;7622;42.724;23.250;2023-02-01T09:31:58;94883.13;;;8.25;61.84
15050;BME280;7622;42.724;23.250;2023-02-01T09:34:25;94885.09;;;8.65;61.11
15050;BME280;7622;42.724;23.250;2023-02-01T09:36:52;94885.28;;;8.94;61.79
15050;BME280;7622;42.724;23.250;2023-02-01T09:39:19;94874.47;;;9.09;59.99
15050;BME280;7622;42.724;23.250;2023-02-01T09:41:52;94876.44;;;8.76;59.37
15050;BME280;7622;42.724;23.250;2023-02-01T09:44:37;94869.75;;;8.73;59.90
15050;BME280;7622;42.724;23.250;2023-02-01T09:47:11;94874.59;;;9.38;58.00
15050;BME280;7622;42.724;23.250;2023-02-01T09:49:45;94860.38;;;9.33;57.76
15050;BME280;7622;42.724;23.250;2023-02-01T09:52:17;94852.44;;;9.34;57.11
15050;BME280;7622;42.724;23.250;2023-02-01T09:54:50;94832.06;;;9.60;61.42
15050;BME280;7622;42.724;23.250;2023-02-01T09:57:23;94833.75;;;10.00;57.19
15050;BME280;7622;42.724;23.250;2023-02-01T09:59:56;94842.81;;;10.34;56.16
15050;BME280;7622;42.724;23.250;2023-02-01T10:02:26;94844.44;;;10.16;55.37
15050;BME280;7622;42.724;23.250;2023-02-01T10:04:55;94843.03;;;9.83;55.29
15050;BME280;7622;42.724;23.250;2023-02-01T10:07:29;94844.63;;;9.65;55.85
15050;BME280;7622;42.724;23.250;2023-02-01T10:10:03;94835.72;;;9.08;57.31
15050;BME280;7622;42.724;23.250;2023-02-01T10:12:54;94833.78;;;8.70;58.68
15050;BME280;7622;42.724;23.250;2023-02-01T10:15:46;94840.50;;;8.82;59.39
15050;BME280;7622;42.724;23.250;2023-02-01T10:18:40;94835.13;;;9.35;56.67
15050;BME280;7622;42.724;23.250;2023-02-01T10:21:17;94822.09;;;9.16;56.30
15050;BME280;7622;42.724;23.250;2023-02-01T10:24:17;94838.38;;;9.77;55.81
15050;BME280;7622;42.724;23.250;2023-02-01T10:26:51;94831.38;;;9.58;56.17
15050;BME280;7622;42.724;23.250;2023-02-01T10:29:25;94835.34;;;9.62;55.60
15050;BME280;7622;42.724;23.250;2023-02-01T10:31:54;94822.41;;;9.91;55.64
15050;BME280;7622;42.724;23.250;2023-02-01T10:34:22;94822.25;;;9.54;54.86
15050;BME280;7622;42.724;23.250;2023-02-01T10:36:55;94814.53;;;8.73;56.33
15050;BME280;7622;42.724;23.250;2023-02-01T10:39:23;94824.28;;;8.59;57.36
15050;BME280;7622;42.724;23.250;2023-02-01T10:41:50;94813.38;;;8.56;57.77
15050;BME280;7622;42.724;23.250;2023-02-01T10:44:20;94806.69;;;8.33;59.08
15050;BME280;7622;42.724;23.250;2023-02-01T10:46:49;94798.88;;;7.48;59.88
15050;BME280;7622;42.724;23.250;2023-02-01T10:49:22;94807.03;;;7.75;97.21
15050;BME280;7622;42.724;23.250;2023-02-01T10:51:54;94774.69;;;8.34;63.68
15050;BME280;7622;42.724;23.250;2023-02-01T10:54:32;94799.25;;;9.30;60.92
15050;BME280;7622;42.724;23.250;2023-02-01T10:56:59;94794.44;;;10.43;56.70
15050;BME280;7622;42.724;23.250;2023-02-01T10:59:28;94779.06;;;10.69;54.22
15050;BME280;7622;42.724;23.250;2023-02-01T11:01:59;94788.53;;;10.97;53.42
15050;BME280;7622;42.724;23.250;2023-02-01T11:04:30;94788.97;;;10.17;54.12
15050;BME280;7622;42.724;23.250;2023-02-01T11:07:05;94794.56;;;9.74;54.63
15050;BME280;7622;42.724;23.250;2023-02-01T11:09:35;94780.41;;;9.19;54.34
15050;BME280;7622;42.724;23.250;2023-02-01T11:12:07;94768.97;;;9.40;54.55
15050;BME280;7622;42.724;23.250;2023-02-01T11:14:47;94768.47;;;9.85;54.23
15050;BME280;7622;42.724;23.250;2023-02-01T11:17:24;94776.41;;;9.93;53.56
15050;BME280;7622;42.724;23.250;2023-02-01T11:19:59;94767.56;;;9.27;55.42
15050;BME280;7622;42.724;23.250;2023-02-01T11:22:26;94765.63;;;10.26;53.56
15050;BME280;7622;42.724;23.250;2023-02-01T11:24:55;94754.28;;;10.08;52.79
15050;BME280;7622;42.724;23.250;2023-02-01T11:27:24;94760.41;;;10.17;52.05
15050;BME280;7622;42.724;23.250;2023-02-01T11:29:55;94765.19;;;10.31;53.44
15050;BME280;7622;42.724;23.250;2023-02-01T11:32:24;94760.00;;;10.31;52.34
15050;BME280;7622;42.724;23.250;2023-02-01T11:34:54;94757.53;;;10.39;52.00
15050;BME280;7622;42.724;23.250;2023-02-01T11:37:25;94770.63;;;10.38;53.14
15050;BME280;7622;42.724;23.250;2023-02-01T11:39:55;94760.78;;;9.55;53.53
15050;BME280;7622;42.724;23.250;2023-02-01T11:42:23;94762.22;;;9.87;53.66
15050;BME280;7622;42.724;23.250;2023-02-01T11:44:50;94758.91;;;10.34;53.74
15050;BME280;7622;42.724;23.250;2023-02-01T11:47:25;94764.09;;;10.43;53.26
15050;BME280;7622;42.724;23.250;2023-02-01T11:49:54;94743.59;;;10.40;52.69
15050;BME280;7622;42.724;23.250;2023-02-01T11:52:48;94760.38;;;10.55;52.95
15050;BME280;7622;42.724;23.250;2023-02-01T11:55:41;94761.50;;;10.90;51.86
15050;BME280;7622;42.724;23.250;2023-02-01T11:58:22;94763.38;;;10.97;51.89
15050;BME280;7622;42.724;23.250;2023-02-01T12:01:05;94756.06;;;10.74;51.77
15050;BME280;7622;42.724;23.250;2023-02-01T12:03:58;94748.66;;;10.13;52.63
15050;BME280;7622;42.724;23.250;2023-02-01T12:06:31;94752.38;;;10.01;53.54
15050;BME280;7622;42.724;23.250;2023-02-01T12:09:13;94742.53;;;10.04;53.04
15050;BME280;7622;42.724;23.250;2023-02-01T12:11:56;94742.34;;;8.49;56.00
15050;BME280;7622;42.724;23.250;2023-02-01T12:14:45;94751.81;;;8.39;57.86
15050;BME280;7622;42.724;23.250;2023-02-01T12:17:45;94736.13;;;8.30;58.87
15050;BME280;7622;42.724;23.250;2023-02-01T12:20:23;94749.81;;;8.42;58.01
15050;BME280;7622;42.724;23.250;2023-02-01T12:23:06;94732.81;;;7.87;60.30
15050;BME280;7622;42.724;23.250;2023-02-01T12:25:55;94748.03;;;7.80;62.40
15050;BME280;7622;42.724;23.250;2023-02-01T12:31:46;94744.59;;;7.59;63.53
15050;BME280;7622;42.724;23.250;2023-02-01T12:34:29;94744.34;;;7.83;61.75
15050;BME280;7622;42.724;23.250;2023-02-01T12:37:06;94750.47;;;7.82;61.52
15050;BME280;7622;42.724;23.250;2023-02-01T12:39:39;94752.41;;;7.69;60.78
15050;BME280;7622;42.724;23.250;2023-02-01T12:42:13;94743.09;;;7.77;61.52
15050;BME280;7622;42.724;23.250;2023-02-01T12:44:49;94751.84;;;7.22;63.50
15050;BME280;7622;42.724;23.250;2023-02-01T12:47:21;94756.31;;;7.31;64.69
15050;BME280;7622;42.724;23.250;2023-02-01T12:49:55;94743.25;;;7.65;64.51
15050;BME280;7622;42.724;23.250;2023-02-01T12:52:29;94753.22;;;7.69;63.26
15050;BME280;7622;42.724;23.250;2023-02-01T12:55:06;94752.91;;;7.63;65.35
15050;BME280;7622;42.724;23.250;2023-02-01T12:57:37;94755.41;;;7.53;66.43
15050;BME280;7622;42.724;23.250;2023-02-01T13:00:16;94740.06;;;7.40;66.24
15050;BME280;7622;42.724;23.250;2023-02-01T13:02:52;94737.72;;;7.37;63.29
15050;BME280;7622;42.724;23.250;2023-02-01T13:05:22;94746.72;;;7.11;65.13
15050;BME280;7622;42.724;23.250;2023-02-01T13:07:53;94729.53;;;7.21;64.17
15050;BME280;7622;42.724;23.250;2023-02-01T13:10:30;94743.13;;;7.34;63.34
15050;BME280;7622;42.724;23.250;2023-02-01T13:13:05;94740.34;;;7.15;66.43
15050;BME280;7622;42.724;23.250;2023-02-01T13:15:40;94742.22;;;7.13;67.62
15050;BME280;7622;42.724;23.250;2023-02-01T13:18:14;94738.22;;;7.31;66.40
15050;BME280;7622;42.724;23.250;2023-02-01T13:20:49;94737.50;;;7.29;64.10
15050;BME280;7622;42.724;23.250;2023-02-01T13:23:23;94738.03;;;7.12;63.85
15050;BME280;7622;42.724;23.250;2023-02-01T13:25:53;94740.13;;;7.07;65.21
15050;BME280;7622;42.724;23.250;2023-02-01T13:28:25;94735.94;;;6.95;65.13
15050;BME280;7622;42.724;23.250;2023-02-01T13:37:05;94725.41;;;6.64;70.13
15050;BME280;7622;42.724;23.250;2023-02-01T13:39:46;94730.53;;;6.87;68.96
15050;BME280;7622;42.724;23.250;2023-02-01T13:42:19;94738.78;;;6.81;68.74